sensor_id;sensor_type;location;lat;lon;timestamp;P1;durP1;ratioP1;P2;durP2;ratioP2
70199;SDS011;57587;55.688;37.600;2022-11-12T00:01:37;6.67;;;3.87;;
70199;SDS011;57587;55.688;37.600;2022-11-12T00:04:23;8.45;;;3.88;;
70199;SDS011;57587;55.688;37.600;2022-11-12T00:07:08;8.38;;;4.07;;
70199;SDS011;57587;55.688;37.600;2022-11-12T00:09:54;11.10;;;3.83;;
70199;SDS011;57587;55.688;37.600;2022-11-12T00:12:40;7.10;;;3.83;;
70199;SDS011;57587;55.688;37.600;2022-11-12T00:15:25;7.90;;;3.50;;
70199;SDS011;57587;55.688;37.600;2022-11-12T00:18:12;10.48;;;3.60;;
70199;SDS011;57587;55.688;37.600;2022-11-12T00:20:57;7.20;;;3.72;;
70199;SDS011;57587;55.688;37.600;2022-11-12T00:23:43;7.35;;;3.53;;
70199;SDS011;57587;55.688;37.600;2022-11-12T00:26:29;8.13;;;3.70;;
70199;SDS011;57587;55.688;37.600;2022-11-12T00:29:14;5.40;;;3.17;;
70199;SDS011;57587;55.688;37.600;2022-11-12T00:31:59;7.93;;;3.55;;
70199;SDS011;57587;55.688;37.600;2022-11-12T00:34:45;6.40;;;3.42;;
70199;SDS011;57587;55.688;37.600;2022-11-12T00:37:31;5.75;;;3.13;;
70199;SDS011;57587;55.688;37.600;2022-11-12T00:40:17;6.00;;;3.58;;
70199;SDS011;57587;55.688;37.600;2022-11-12T00:43:02;7.73;;;3.87;;
70199;SDS011;57587;55.688;37.600;2022-11-12T00:45:48;6.00;;;3.30;;
70199;SDS011;57587;55.688;37.600;2022-11-12T00:48:33;6.57;;;3.72;;
70199;SDS011;57587;55.688;37.600;2022-11-12T00:51:19;7.50;;;3.80;;
70199;SDS011;57587;55.688;37.600;2022-11-12T00:54:04;9.40;;;4.53;;
70199;SDS011;57587;55.688;37.600;2022-11-12T00:56:50;7.37;;;4.00;;
70199;SDS011;57587;55.688;37.600;2022-11-12T00:59:36;9.75;;;3.80;;
70199;SDS011;57587;55.688;37.600;2022-11-12T01:02:21;6.18;;;3.67;;
70199;SDS011;57587;55.688;37.600;2022-11-12T01:05:06;8.02;;;3.97;;
70199;SDS011;57587;55.688;37.600;2022-11-12T01:07:52;8.85;;;3.97;;
70199;SDS011;57587;55.688;37.600;2022-11-12T01:10:40;9.27;;;4.13;;
70199;SDS011;57587;55.688;37.600;2022-11-12T01:13:25;6.65;;;3.80;;
70199;SDS011;57587;55.688;37.600;2022-11-12T01:16:15;9.95;;;4.25;;
70199;SDS011;57587;55.688;37.600;2022-11-12T01:19:04;7.88;;;3.78;;
70199;SDS011;57587;55.688;37.600;2022-11-12T01:21:51;6.63;;;3.58;;
70199;SDS011;57587;55.688;37.600;2022-11-12T01:24:37;6.80;;;3.87;;
70199;SDS011;57587;55.688;37.600;2022-11-12T01:27:22;7.50;;;3.85;;
70199;SDS011;57587;55.688;37.600;2022-11-12T01:30:08;7.65;;;3.55;;
70199;SDS011;57587;55.688;37.600;2022-11-12T01:32:55;5.70;;;3.83;;
70199;SDS011;57587;55.688;37.600;2022-11-12T01:35:41;8.90;;;4.00;;
70199;SDS011;57587;55.688;37.600;2022-11-12T01:38:26;6.77;;;4.00;;
70199;SDS011;57587;55.688;37.600;2022-11-12T01:41:14;5.82;;;3.90;;
70199;SDS011;57587;55.688;37.600;2022-11-12T01:47:09;7.95;;;4.07;;
70199;SDS011;57587;55.688;37.600;2022-11-12T01:49:59;8.05;;;4.43;;
70199;SDS011;57587;55.688;37.600;2022-11-12T01:53:04;9.00;;;4.30;;
70199;SDS011;57587;55.688;37.600;2022-11-12T01:55:54;8.18;;;4.40;;
70199;SDS011;57587;55.688;37.600;2022-11-12T01:58:41;7.72;;;4.80;;
70199;SDS011;57587;55.688;37.600;2022-11-12T02:01:28;9.07;;;5.38;;
70199;SDS011;57587;55.688;37.600;2022-11-12T02:04:14;8.93;;;4.55;;
70199;SDS011;57587;55.688;37.600;2022-11-12T02:07:01;10.23;;;4.93;;
70199;SDS011;57587;55.688;37.600;2022-11-12T02:09:47;13.40;;;5.85;;
70199;SDS011;57587;55.688;37.600;2022-11-12T02:12:33;9.27;;;5.05;;
70199;SDS011;57587;55.688;37.600;2022-11-12T02:15:38;13.05;;;5.40;;
70199;SDS011;57587;55.688;37.600;2022-11-12T02:18:25;8.40;;;4.63;;
70199;SDS011;57587;55.688;37.600;2022-11-12T02:21:11;8.87;;;4.80;;
70199;SDS011;57587;55.688;37.600;2022-11-12T02:27:05;7.90;;;4.85;;
70199;SDS011;57587;55.688;37.600;2022-11-12T02:29:51;7.70;;;4.38;;
70199;SDS011;57587;55.688;37.600;2022-11-12T02:32:37;8.23;;;4.57;;
70199;SDS011;57587;55.688;37.600;2022-11-12T02:35:23;7.07;;;4.23;;
70199;SDS011;57587;55.688;37.600;2022-11-12T02:38:09;7.93;;;4.78;;
70199;SDS011;57587;55.688;37.600;2022-11-12T02:40:55;8.35;;;4.78;;
70199;SDS011;57587;55.688;37.600;2022-11-12T02:43:40;8.05;;;4.63;;
70199;SDS011;57587;55.688;37.600;2022-11-12T02:46:26;8.50;;;4.60;;
70199;SDS011;57587;55.688;37.600;2022-11-12T02:49:11;7.17;;;4.30;;
70199;SDS011;57587;55.688;37.600;2022-11-12T02:51:57;8.95;;;4.28;;
70199;SDS011;57587;55.688;37.600;2022-11-12T02:54:42;7.70;;;3.92;;
70199;SDS011;57587;55.688;37.600;2022-11-12T02:57:28;7.22;;;4.53;;
70199;SDS011;57587;55.688;37.600;2022-11-12T03:00:14;7.97;;;4.60;;
70199;SDS011;57587;55.688;37.600;2022-11-12T03:03:00;7.20;;;3.60;;
70199;SDS011;57587;55.688;37.600;2022-11-12T03:05:53;7.15;;;4.00;;
70199;SDS011;57587;55.688;37.600;2022-11-12T03:08:44;7.65;;;4.10;;
70199;SDS011;57587;55.688;37.600;2022-11-12T03:11:29;6.05;;;3.92;;
70199;SDS011;57587;55.688;37.600;2022-11-12T03:14:15;7.10;;;4.07;;
70199;SDS011;57587;55.688;37.600;2022-11-12T03:17:00;7.80;;;4.70;;
70199;SDS011;57587;55.688;37.600;2022-11-12T03:19:47;7.15;;;3.92;;
70199;SDS011;57587;55.688;37.600;2022-11-12T03:22:33;8.20;;;4.53;;
70199;SDS011;57587;55.688;37.600;2022-11-12T03:25:18;7.43;;;4.40;;
70199;SDS011;57587;55.688;37.600;2022-11-12T03:28:05;6.97;;;4.32;;
70199;SDS011;57587;55.688;37.600;2022-11-12T03:30:55;6.93;;;3.87;;
70199;SDS011;57587;55.688;37.600;2022-11-12T03:33:43;8.52;;;4.53;;
70199;SDS011;57587;55.688;37.600;2022-11-12T03:36:28;8.80;;;4.63;;
70199;SDS011;57587;55.688;37.600;2022-11-12T03:39:14;7.22;;;4.43;;
70199;SDS011;57587;55.688;37.600;2022-11-12T03:42:00;6.70;;;4.35;;
70199;SDS011;57587;55.688;37.600;2022-11-12T03:44:46;7.13;;;4.07;;
70199;SDS011;57587;55.688;37.600;2022-11-12T03:47:31;6.78;;;4.18;;
70199;SDS011;57587;55.688;37.600;2022-11-12T03:50:18;6.68;;;4.10;;
70199;SDS011;57587;55.688;37.600;2022-11-12T03:53:05;7.90;;;4.50;;
70199;SDS011;57587;55.688;37.600;2022-11-12T03:55:52;8.02;;;4.40;;
70199;SDS011;57587;55.688;37.600;2022-11-12T03:58:37;7.13;;;4.37;;
70199;SDS011;57587;55.688;37.600;2022-11-12T04:01:23;7.72;;;4.20;;
70199;SDS011;57587;55.688;37.600;2022-11-12T04:04:12;7.80;;;4.30;;
70199;SDS011;57587;55.688;37.600;2022-11-12T04:06:57;7.35;;;4.07;;
70199;SDS011;57587;55.688;37.600;2022-11-12T04:10:02;9.27;;;4.70;;
70199;SDS011;57587;55.688;37.600;2022-11-12T04:12:48;9.87;;;4.50;;
70199;SDS011;57587;55.688;37.600;2022-11-12T04:15:52;8.27;;;4.97;;
70199;SDS011;57587;55.688;37.600;2022-11-12T04:18:58;10.13;;;4.38;;
70199;SDS011;57587;55.688;37.600;2022-11-12T04:22:08;6.28;;;4.00;;
70199;SDS011;57587;55.688;37.600;2022-11-12T04:24:55;7.88;;;4.13;;
70199;SDS011;57587;55.688;37.600;2022-11-12T04:27:59;6.67;;;3.80;;
70199;SDS011;57587;55.688;37.600;2022-11-12T04:30:45;7.07;;;4.15;;
70199;SDS011;57587;55.688;37.600;2022-11-12T04:33:30;6.28;;;3.63;;
70199;SDS011;57587;55.688;37.600;2022-11-12T04:36:16;6.50;;;3.42;;
70199;SDS011;57587;55.688;37.600;2022-11-12T04:39:02;5.88;;;3.13;;
70199;SDS011;57587;55.688;37.600;2022-11-12T04:41:47;6.53;;;3.63;;
70199;SDS011;57587;55.688;37.600;2022-11-12T04:44:52;6.07;;;3.30;;
70199;SDS011;57587;55.688;37.600;2022-11-12T04:47:48;6.88;;;3.63;;
70199;SDS011;57587;55.688;37.600;2022-11-12T04:50:33;7.88;;;3.55;;
70199;SDS011;57587;55.688;37.600;2022-11-12T04:53:19;6.30;;;3.92;;
70199;SDS011;57587;55.688;37.600;2022-11-12T04:56:05;7.90;;;4.97;;
70199;SDS011;57587;55.688;37.600;2022-11-12T04:58:53;5.22;;;3.13;;
70199;SDS011;57587;55.688;37.600;2022-11-12T05:01:38;5.93;;;3.13;;
70199;SDS011;57587;55.688;37.600;2022-11-12T05:04:24;6.05;;;3.55;;
70199;SDS011;57587;55.688;37.600;2022-11-12T05:07:13;5.03;;;3.20;;
70199;SDS011;57587;55.688;37.600;2022-11-12T05:10:02;5.63;;;3.03;;
70199;SDS011;57587;55.688;37.600;2022-11-12T05:12:48;7.43;;;3.63;;
70199;SDS011;57587;55.688;37.600;2022-11-12T05:15:34;5.93;;;3.67;;
70199;SDS011;57587;55.688;37.600;2022-11-12T05:18:19;6.13;;;2.92;;
70199;SDS011;57587;55.688;37.600;2022-11-12T05:21:05;5.47;;;3.15;;
70199;SDS011;57587;55.688;37.600;2022-11-12T05:24:10;7.60;;;3.10;;
70199;SDS011;57587;55.688;37.600;2022-11-12T05:27:18;4.65;;;3.05;;
70199;SDS011;57587;55.688;37.600;2022-11-12T05:30:05;6.10;;;3.20;;
70199;SDS011;57587;55.688;37.600;2022-11-12T05:32:52;4.93;;;3.00;;
70199;SDS011;57587;55.688;37.600;2022-11-12T05:35:37;5.68;;;3.17;;
70199;SDS011;57587;55.688;37.600;2022-11-12T05:38:22;4.90;;;3.20;;
70199;SDS011;57587;55.688;37.600;2022-11-12T05:41:08;6.35;;;3.00;;
70199;SDS011;57587;55.688;37.600;2022-11-12T05:43:54;6.20;;;2.92;;
70199;SDS011;57587;55.688;37.600;2022-11-12T05:46:40;5.28;;;2.90;;
70199;SDS011;57587;55.688;37.600;2022-11-12T05:49:26;5.07;;;2.90;;
70199;SDS011;57587;55.688;37.600;2022-11-12T05:52:12;4.37;;;2.73;;
70199;SDS011;57587;55.688;37.600;2022-11-12T05:54:57;5.13;;;2.70;;
70199;SDS011;57587;55.688;37.600;2022-11-12T05:57:43;4.57;;;2.53;;
70199;SDS011;57587;55.688;37.600;2022-11-12T06:00:28;4.20;;;2.75;;
70199;SDS011;57587;55.688;37.600;2022-11-12T06:03:14;4.00;;;2.50;;
70199;SDS011;57587;55.688;37.600;2022-11-12T06:05:59;4.83;;;2.97;;
70199;SDS011;57587;55.688;37.600;2022-11-12T06:08:45;5.78;;;2.78;;
70199;SDS011;57587;55.688;37.600;2022-11-12T06:11:31;7.05;;;2.88;;
70199;SDS011;57587;55.688;37.600;2022-11-12T06:14:17;6.65;;;3.10;;
70199;SDS011;57587;55.688;37.600;2022-11-12T06:17:02;4.75;;;2.60;;
70199;SDS011;57587;55.688;37.600;2022-11-12T06:19:48;4.07;;;2.60;;
70199;SDS011;57587;55.688;37.600;2022-11-12T06:22:33;4.30;;;2.60;;
70199;SDS011;57587;55.688;37.600;2022-11-12T06:25:19;6.18;;;2.95;;
70199;SDS011;57587;55.688;37.600;2022-11-12T06:28:04;4.70;;;2.58;;
70199;SDS011;57587;55.688;37.600;2022-11-12T06:30:49;9.52;;;2.70;;
70199;SDS011;57587;55.688;37.600;2022-11-12T06:33:34;4.10;;;2.30;;
70199;SDS011;57587;55.688;37.600;2022-11-12T06:36:20;5.65;;;2.50;;
70199;SDS011;57587;55.688;37.600;2022-11-12T06:39:06;3.42;;;2.25;;
70199;SDS011;57587;55.688;37.600;2022-11-12T06:41:53;4.72;;;2.40;;
70199;SDS011;57587;55.688;37.600;2022-11-12T06:44:39;4.32;;;2.65;;
70199;SDS011;57587;55.688;37.600;2022-11-12T06:47:25;3.67;;;2.20;;
70199;SDS011;57587;55.688;37.600;2022-11-12T06:50:14;4.55;;;2.33;;
70199;SDS011;57587;55.688;37.600;2022-11-12T06:52:59;4.60;;;2.20;;
70199;SDS011;57587;55.688;37.600;2022-11-12T06:55:44;5.90;;;2.30;;
70199;SDS011;57587;55.688;37.600;2022-11-12T06:58:30;4.30;;;2.50;;
70199;SDS011;57587;55.688;37.600;2022-11-12T07:01:16;4.33;;;2.17;;
70199;SDS011;57587;55.688;37.600;2022-11-12T07:04:02;7.75;;;2.10;;
70199;SDS011;57587;55.688;37.600;2022-11-12T07:06:54;4.07;;;2.10;;
70199;SDS011;57587;55.688;37.600;2022-11-12T07:09:40;4.10;;;2.40;;
70199;SDS011;57587;55.688;37.600;2022-11-12T07:12:26;4.07;;;2.20;;
70199;SDS011;57587;55.688;37.600;2022-11-12T07:15:15;4.00;;;2.50;;
70199;SDS011;57587;55.688;37.600;2022-11-12T07:18:03;5.18;;;2.30;;
70199;SDS011;57587;55.688;37.600;2022-11-12T07:20:48;3.80;;;2.70;;
70199;SDS011;57587;55.688;37.600;2022-11-12T07:23:35;5.00;;;2.20;;
70199;SDS011;57587;55.688;37.600;2022-11-12T07:26:22;3.40;;;2.30;;
70199;SDS011;57587;55.688;37.600;2022-11-12T07:29:09;3.60;;;1.77;;
70199;SDS011;57587;55.688;37.600;2022-11-12T07:31:54;3.88;;;2.03;;
70199;SDS011;57587;55.688;37.600;2022-11-12T07:34:40;3.25;;;2.10;;
70199;SDS011;57587;55.688;37.600;2022-11-12T07:37:25;3.25;;;2.00;;
70199;SDS011;57587;55.688;37.600;2022-11-12T07:40:10;4.53;;;2.00;;
70199;SDS011;57587;55.688;37.600;2022-11-12T07:42:57;2.70;;;1.80;;
70199;SDS011;57587;55.688;37.600;2022-11-12T07:45:43;5.25;;;1.80;;
70199;SDS011;57587;55.688;37.600;2022-11-12T07:48:29;3.30;;;1.90;;
70199;SDS011;57587;55.688;37.600;2022-11-12T07:51:17;3.83;;;1.60;;
70199;SDS011;57587;55.688;37.600;2022-11-12T07:54:03;3.20;;;1.50;;
70199;SDS011;57587;55.688;37.600;2022-11-12T07:56:49;3.30;;;1.70;;
70199;SDS011;57587;55.688;37.600;2022-11-12T07:59:35;3.83;;;1.80;;
70199;SDS011;57587;55.688;37.600;2022-11-12T08:02:24;3.70;;;2.03;;
70199;SDS011;57587;55.688;37.600;2022-11-12T08:05:10;3.65;;;1.70;;
70199;SDS011;57587;55.688;37.600;2022-11-12T08:08:04;3.83;;;1.80;;
70199;SDS011;57587;55.688;37.600;2022-11-12T08:10:57;5.13;;;2.07;;
70199;SDS011;57587;55.688;37.600;2022-11-12T08:13:43;3.90;;;1.95;;
70199;SDS011;57587;55.688;37.600;2022-11-12T08:16:29;3.40;;;1.80;;
70199;SDS011;57587;55.688;37.600;2022-11-12T08:19:15;3.03;;;1.70;;
70199;SDS011;57587;55.688;37.600;2022-11-12T08:22:00;2.70;;;1.70;;
70199;SDS011;57587;55.688;37.600;2022-11-12T08:24:46;2.77;;;1.40;;
70199;SDS011;57587;55.688;37.600;2022-11-12T08:27:32;3.25;;;1.65;;
70199;SDS011;57587;55.688;37.600;2022-11-12T08:30:17;3.75;;;1.70;;
70199;SDS011;57587;55.688;37.600;2022-11-12T08:33:10;3.30;;;1.70;;
70199;SDS011;57587;55.688;37.600;2022-11-12T08:35:56;3.35;;;1.75;;
70199;SDS011;57587;55.688;37.600;2022-11-12T08:38:42;4.73;;;2.10;;
70199;SDS011;57587;55.688;37.600;2022-11-12T08:41:28;3.42;;;1.88;;
70199;SDS011;57587;55.688;37.600;2022-11-12T08:44:13;3.85;;;1.90;;
70199;SDS011;57587;55.688;37.600;2022-11-12T08:46:59;2.92;;;1.70;;
70199;SDS011;57587;55.688;37.600;2022-11-12T08:49:44;3.80;;;1.60;;
70199;SDS011;57587;55.688;37.600;2022-11-12T08:52:32;3.87;;;1.70;;
70199;SDS011;57587;55.688;37.600;2022-11-12T08:55:18;4.20;;;1.50;;
70199;SDS011;57587;55.688;37.600;2022-11-12T08:58:03;7.75;;;1.90;;
70199;SDS011;57587;55.688;37.600;2022-11-12T09:00:50;2.83;;;1.70;;
70199;SDS011;57587;55.688;37.600;2022-11-12T09:03:36;3.60;;;1.98;;
70199;SDS011;57587;55.688;37.600;2022-11-12T09:06:21;4.27;;;2.20;;
70199;SDS011;57587;55.688;37.600;2022-11-12T09:09:07;5.05;;;1.98;;
70199;SDS011;57587;55.688;37.600;2022-11-12T09:11:53;3.90;;;1.58;;
70199;SDS011;57587;55.688;37.600;2022-11-12T09:14:38;4.22;;;1.80;;
70199;SDS011;57587;55.688;37.600;2022-11-12T09:17:24;2.58;;;1.48;;
70199;SDS011;57587;55.688;37.600;2022-11-12T09:20:10;2.87;;;1.60;;
70199;SDS011;57587;55.688;37.600;2022-11-12T09:23:00;3.60;;;1.60;;
70199;SDS011;57587;55.688;37.600;2022-11-12T09:25:50;4.35;;;1.80;;
70199;SDS011;57587;55.688;37.600;2022-11-12T09:28:38;3.15;;;1.70;;
70199;SDS011;57587;55.688;37.600;2022-11-12T09:31:23;5.20;;;1.80;;
70199;SDS011;57587;55.688;37.600;2022-11-12T09:34:12;4.60;;;1.90;;
70199;SDS011;57587;55.688;37.600;2022-11-12T09:36:58;3.72;;;1.73;;
70199;SDS011;57587;55.688;37.600;2022-11-12T09:39:43;3.47;;;1.90;;
70199;SDS011;57587;55.688;37.600;2022-11-12T09:42:29;3.72;;;1.50;;
70199;SDS011;57587;55.688;37.600;2022-11-12T09:45:25;3.30;;;1.90;;
70199;SDS011;57587;55.688;37.600;2022-11-12T09:48:16;2.80;;;1.53;;
70199;SDS011;57587;55.688;37.600;2022-11-12T09:51:11;3.00;;;1.70;;
70199;SDS011;57587;55.688;37.600;2022-11-12T09:57:04;3.53;;;1.80;;
70199;SDS011;57587;55.688;37.600;2022-11-12T09:59:54;2.92;;;1.50;;
70199;SDS011;57587;55.688;37.600;2022-11-12T10:06:04;3.38;;;1.80;;
70199;SDS011;57587;55.688;37.600;2022-11-12T10:21:09;3.75;;;1.80;;
70199;SDS011;57587;55.688;37.600;2022-11-12T10:24:15;3.72;;;1.80;;
70199;SDS011;57587;55.688;37.600;2022-11-12T10:27:12;2.50;;;1.50;;
70199;SDS011;57587;55.688;37.600;2022-11-12T10:30:06;2.97;;;1.60;;
70199;SDS011;57587;55.688;37.600;2022-11-12T10:33:02;3.50;;;1.70;;
70199;SDS011;57587;55.688;37.600;2022-11-12T10:35:48;2.72;;;1.40;;
70199;SDS011;57587;55.688;37.600;2022-11-12T10:38:36;2.80;;;1.45;;
70199;SDS011;57587;55.688;37.600;2022-11-12T10:44:12;2.63;;;1.42;;
70199;SDS011;57587;55.688;37.600;2022-11-12T10:53:04;2.40;;;1.50;;
70199;SDS011;57587;55.688;37.600;2022-11-12T10:55:55;3.25;;;1.40;;
70199;SDS011;57587;55.688;37.600;2022-11-12T10:58:43;4.07;;;1.80;;
70199;SDS011;57587;55.688;37.600;2022-11-12T11:01:29;2.77;;;1.33;;
70199;SDS011;57587;55.688;37.600;2022-11-12T11:07:22;3.28;;;1.60;;
70199;SDS011;57587;55.688;37.600;2022-11-12T11:10:21;2.75;;;1.60;;
70199;SDS011;57587;55.688;37.600;2022-11-12T11:13:18;3.28;;;1.70;;
70199;SDS011;57587;55.688;37.600;2022-11-12T11:16:25;2.57;;;1.40;;
70199;SDS011;57587;55.688;37.600;2022-11-12T11:19:12;5.07;;;1.80;;
70199;SDS011;57587;55.688;37.600;2022-11-12T11:22:01;3.58;;;1.40;;
70199;SDS011;57587;55.688;37.600;2022-11-12T11:28:10;3.33;;;1.88;;
70199;SDS011;57587;55.688;37.600;2022-11-12T11:34:19;4.05;;;1.58;;
70199;SDS011;57587;55.688;37.600;2022-11-12T11:40:17;2.88;;;1.50;;
70199;SDS011;57587;55.688;37.600;2022-11-12T11:49:00;2.67;;;1.30;;
70199;SDS011;57587;55.688;37.600;2022-11-12T12:01:14;3.10;;;1.50;;
70199;SDS011;57587;55.688;37.600;2022-11-12T12:10:37;3.20;;;1.45;;
70199;SDS011;57587;55.688;37.600;2022-11-12T12:22:55;2.67;;;1.70;;
70199;SDS011;57587;55.688;37.600;2022-11-12T12:25:46;2.60;;;1.50;;
70199;SDS011;57587;55.688;37.600;2022-11-12T12:31:47;3.63;;;1.33;;
70199;SDS011;57587;55.688;37.600;2022-11-12T12:34:43;3.22;;;1.38;;
70199;SDS011;57587;55.688;37.600;2022-11-12T12:37:44;3.42;;;1.73;;
70199;SDS011;57587;55.688;37.600;2022-11-12T12:40:42;2.78;;;1.40;;
70199;SDS011;57587;55.688;37.600;2022-11-12T12:43:50;3.80;;;1.80;;
70199;SDS011;57587;55.688;37.600;2022-11-12T12:46:42;2.67;;;1.40;;
70199;SDS011;57587;55.688;37.600;2022-11-12T12:49:36;3.88;;;1.63;;
70199;SDS011;57587;55.688;37.600;2022-11-12T12:52:23;3.42;;;1.90;;
70199;SDS011;57587;55.688;37.600;2022-11-12T12:55:31;2.92;;;1.80;;
70199;SDS011;57587;55.688;37.600;2022-11-12T12:58:31;2.92;;;1.65;;
70199;SDS011;57587;55.688;37.600;2022-11-12T13:01:29;3.30;;;1.63;;
70199;SDS011;57587;55.688;37.600;2022-11-12T13:04:35;5.47;;;1.90;;
70199;SDS011;57587;55.688;37.600;2022-11-12T13:07:38;3.47;;;1.95;;
70199;SDS011;57587;55.688;37.600;2022-11-12T13:13:24;2.58;;;1.70;;
70199;SDS011;57587;55.688;37.600;2022-11-12T13:16:54;3.57;;;1.50;;
70199;SDS011;57587;55.688;37.600;2022-11-12T13:20:15;5.32;;;1.73;;
70199;SDS011;57587;55.688;37.600;2022-11-12T13:22:55;3.95;;;1.80;;
70199;SDS011;57587;55.688;37.600;2022-11-12T13:25:40;4.35;;;1.60;;
70199;SDS011;57587;55.688;37.600;2022-11-12T13:28:26;3.28;;;1.50;;
70199;SDS011;57587;55.688;37.600;2022-11-12T13:31:23;2.83;;;1.53;;
70199;SDS011;57587;55.688;37.600;2022-11-12T13:34:12;2.70;;;1.30;;
70199;SDS011;57587;55.688;37.600;2022-11-12T13:37:04;3.28;;;1.55;;
70199;SDS011;57587;55.688;37.600;2022-11-12T13:39:50;3.25;;;1.65;;
70199;SDS011;57587;55.688;37.600;2022-11-12T13:42:36;2.97;;;1.48;;
70199;SDS011;57587;55.688;37.600;2022-11-12T13:45:37;3.13;;;1.40;;
70199;SDS011;57587;55.688;37.600;2022-11-12T13:48:46;3.80;;;1.85;;
70199;SDS011;57587;55.688;37.600;2022-11-12T13:51:41;3.10;;;1.63;;
70199;SDS011;57587;55.688;37.600;2022-11-12T13:57:24;3.00;;;1.52;;
70199;SDS011;57587;55.688;37.600;2022-11-12T14:03:05;2.30;;;1.25;;
70199;SDS011;57587;55.688;37.600;2022-11-12T14:05:52;2.63;;;1.42;;
70199;SDS011;57587;55.688;37.600;2022-11-12T14:15:04;4.30;;;1.50;;
70199;SDS011;57587;55.688;37.600;2022-11-12T14:20:55;3.17;;;1.25;;
70199;SDS011;57587;55.688;37.600;2022-11-12T14:23:44;5.53;;;1.85;;
70199;SDS011;57587;55.688;37.600;2022-11-12T14:26:38;2.50;;;1.08;;
70199;SDS011;57587;55.688;37.600;2022-11-12T14:29:26;2.47;;;1.23;;
70199;SDS011;57587;55.688;37.600;2022-11-12T14:32:19;2.13;;;1.10;;
70199;SDS011;57587;55.688;37.600;2022-11-12T14:35:18;3.55;;;1.30;;
70199;SDS011;57587;55.688;37.600;2022-11-12T14:38:16;2.50;;;1.27;;
70199;SDS011;57587;55.688;37.600;2022-11-12T14:41:24;2.75;;;1.00;;
70199;SDS011;57587;55.688;37.600;2022-11-12T14:44:12;2.90;;;1.10;;
70199;SDS011;57587;55.688;37.600;2022-11-12T14:47:03;2.35;;;1.20;;
70199;SDS011;57587;55.688;37.600;2022-11-12T14:49:48;2.45;;;1.20;;
70199;SDS011;57587;55.688;37.600;2022-11-12T14:52:36;2.65;;;1.10;;
70199;SDS011;57587;55.688;37.600;2022-11-12T14:55:32;2.38;;;1.10;;
70199;SDS011;57587;55.688;37.600;2022-11-12T14:58:20;2.40;;;1.00;;
70199;SDS011;57587;55.688;37.600;2022-11-12T15:04:22;2.17;;;1.10;;
70199;SDS011;57587;55.688;37.600;2022-11-12T15:07:23;2.83;;;1.10;;
70199;SDS011;57587;55.688;37.600;2022-11-12T15:10:34;2.95;;;1.00;;
70199;SDS011;57587;55.688;37.600;2022-11-12T15:13:25;5.13;;;1.10;;
70199;SDS011;57587;55.688;37.600;2022-11-12T15:16:16;1.92;;;1.02;;
70199;SDS011;57587;55.688;37.600;2022-11-12T15:22:01;2.15;;;1.00;;
70199;SDS011;57587;55.688;37.600;2022-11-12T15:24:48;3.42;;;1.00;;
70199;SDS011;57587;55.688;37.600;2022-11-12T15:27:36;2.47;;;1.00;;
70199;SDS011;57587;55.688;37.600;2022-11-12T15:30:23;2.88;;;1.20;;
70199;SDS011;57587;55.688;37.600;2022-11-12T15:35:56;2.70;;;1.17;;
70199;SDS011;57587;55.688;37.600;2022-11-12T15:38:47;2.70;;;1.20;;
70199;SDS011;57587;55.688;37.600;2022-11-12T15:41:35;2.70;;;1.50;;
70199;SDS011;57587;55.688;37.600;2022-11-12T15:44:21;2.72;;;1.20;;
70199;SDS011;57587;55.688;37.600;2022-11-12T15:47:07;3.50;;;1.20;;
70199;SDS011;57587;55.688;37.600;2022-11-12T15:49:59;7.28;;;1.30;;
70199;SDS011;57587;55.688;37.600;2022-11-12T15:52:45;5.95;;;1.58;;
70199;SDS011;57587;55.688;37.600;2022-11-12T15:55:31;2.93;;;1.27;;
70199;SDS011;57587;55.688;37.600;2022-11-12T15:58:19;3.10;;;1.52;;
70199;SDS011;57587;55.688;37.600;2022-11-12T16:01:11;3.08;;;1.20;;
70199;SDS011;57587;55.688;37.600;2022-11-12T16:03:57;2.10;;;1.05;;
70199;SDS011;57587;55.688;37.600;2022-11-12T16:06:43;2.22;;;1.20;;
70199;SDS011;57587;55.688;37.600;2022-11-12T16:09:29;2.20;;;1.00;;
70199;SDS011;57587;55.688;37.600;2022-11-12T16:12:14;2.72;;;1.30;;
70199;SDS011;57587;55.688;37.600;2022-11-12T16:15:00;4.03;;;1.15;;
70199;SDS011;57587;55.688;37.600;2022-11-12T16:17:46;2.97;;;1.13;;
70199;SDS011;57587;55.688;37.600;2022-11-12T16:20:33;3.17;;;1.30;;
70199;SDS011;57587;55.688;37.600;2022-11-12T16:23:20;2.43;;;1.00;;
70199;SDS011;57587;55.688;37.600;2022-11-12T16:26:06;2.40;;;1.00;;
70199;SDS011;57587;55.688;37.600;2022-11-12T16:28:53;2.30;;;1.00;;
70199;SDS011;57587;55.688;37.600;2022-11-12T16:31:42;5.43;;;1.20;;
70199;SDS011;57587;55.688;37.600;2022-11-12T16:34:30;2.38;;;1.10;;
70199;SDS011;57587;55.688;37.600;2022-11-12T16:37:15;2.07;;;0.90;;
70199;SDS011;57587;55.688;37.600;2022-11-12T16:40:01;2.53;;;1.10;;
70199;SDS011;57587;55.688;37.600;2022-11-12T16:42:47;2.38;;;1.05;;
70199;SDS011;57587;55.688;37.600;2022-11-12T16:45:34;3.95;;;1.10;;
70199;SDS011;57587;55.688;37.600;2022-11-12T16:48:22;3.15;;;1.00;;
70199;SDS011;57587;55.688;37.600;2022-11-12T16:51:10;5.10;;;1.10;;
70199;SDS011;57587;55.688;37.600;2022-11-12T16:54:00;3.08;;;1.00;;
70199;SDS011;57587;55.688;37.600;2022-11-12T16:56:46;2.30;;;1.10;;
70199;SDS011;57587;55.688;37.600;2022-11-12T16:59:33;2.97;;;1.10;;
70199;SDS011;57587;55.688;37.600;2022-11-12T17:02:19;3.80;;;1.08;;
70199;SDS011;57587;55.688;37.600;2022-11-12T17:05:09;3.20;;;1.00;;
70199;SDS011;57587;55.688;37.600;2022-11-12T17:07:59;3.92;;;1.10;;
70199;SDS011;57587;55.688;37.600;2022-11-12T17:10:45;2.85;;;1.10;;
70199;SDS011;57587;55.688;37.600;2022-11-12T17:13:31;3.10;;;1.10;;
70199;SDS011;57587;55.688;37.600;2022-11-12T17:16:16;2.67;;;0.95;;
70199;SDS011;57587;55.688;37.600;2022-11-12T17:19:02;3.37;;;1.30;;
70199;SDS011;57587;55.688;37.600;2022-11-12T17:21:49;3.08;;;1.15;;
70199;SDS011;57587;55.688;37.600;2022-11-12T17:24:35;4.43;;;1.30;;
70199;SDS011;57587;55.688;37.600;2022-11-12T17:27:21;2.30;;;1.00;;
70199;SDS011;57587;55.688;37.600;2022-11-12T17:30:06;3.30;;;1.10;;
70199;SDS011;57587;55.688;37.600;2022-11-12T17:32:52;3.90;;;1.73;;
70199;SDS011;57587;55.688;37.600;2022-11-12T17:35:38;2.80;;;1.10;;
70199;SDS011;57587;55.688;37.600;2022-11-12T17:38:24;2.88;;;1.17;;
70199;SDS011;57587;55.688;37.600;2022-11-12T17:41:10;2.97;;;1.00;;
70199;SDS011;57587;55.688;37.600;2022-11-12T17:43:57;2.80;;;1.10;;
70199;SDS011;57587;55.688;37.600;2022-11-12T17:46:45;2.40;;;1.10;;
70199;SDS011;57587;55.688;37.600;2022-11-12T17:49:31;3.53;;;1.15;;
70199;SDS011;57587;55.688;37.600;2022-11-12T17:52:17;2.63;;;1.35;;
70199;SDS011;57587;55.688;37.600;2022-11-12T17:55:02;3.17;;;1.15;;
70199;SDS011;57587;55.688;37.600;2022-11-12T17:57:49;4.30;;;1.10;;
70199;SDS011;57587;55.688;37.600;2022-11-12T18:00:37;4.10;;;1.20;;
70199;SDS011;57587;55.688;37.600;2022-11-12T18:03:23;3.30;;;1.20;;
70199;SDS011;57587;55.688;37.600;2022-11-12T18:06:09;3.38;;;1.50;;
70199;SDS011;57587;55.688;37.600;2022-11-12T18:08:57;5.28;;;1.50;;
70199;SDS011;57587;55.688;37.600;2022-11-12T18:11:46;3.63;;;1.30;;
70199;SDS011;57587;55.688;37.600;2022-11-12T18:14:34;2.50;;;1.20;;
70199;SDS011;57587;55.688;37.600;2022-11-12T18:17:19;3.53;;;1.30;;
70199;SDS011;57587;55.688;37.600;2022-11-12T18:20:05;3.13;;;1.30;;
70199;SDS011;57587;55.688;37.600;2022-11-12T18:22:51;3.00;;;1.60;;
70199;SDS011;57587;55.688;37.600;2022-11-12T18:25:37;2.80;;;1.42;;
70199;SDS011;57587;55.688;37.600;2022-11-12T18:28:23;3.13;;;1.27;;